createdAt,value
2016-09-14T00:00:27.903Z,1006.33
2016-09-14T00:01:10.048Z,1006.35
2016-09-14T00:01:50.553Z,1006.4
2016-09-14T00:02:31.148Z,1006.38
2016-09-14T00:03:11.727Z,1006.39
2016-09-14T00:03:52.281Z,1006.38
2016-09-14T00:04:33.789Z,1006.4
2016-09-14T00:05:14.372Z,1006.36
2016-09-14T00:05:58.491Z,1006.39
2016-09-14T00:06:39.001Z,1006.39
2016-09-14T00:07:22.393Z,1006.33
2016-09-14T00:08:02.881Z,1006.35
2016-09-14T00:08:43.444Z,1006.37
2016-09-14T00:09:23.970Z,1006.38
2016-09-14T00:10:04.501Z,1006.4
2016-09-14T00:10:45.149Z,1006.41
2016-09-14T00:11:25.776Z,1006.38
2016-09-14T00:12:06.348Z,1006.39
2016-09-14T00:12:46.970Z,1006.38
2016-09-14T00:13:29.542Z,1006.34
2016-09-14T00:14:10.088Z,1006.38
2016-09-14T00:14:52.343Z,1006.38
2016-09-14T00:15:32.999Z,1006.35
2016-09-14T00:16:15.215Z,1006.39
2016-09-14T00:16:55.791Z,1006.37
2016-09-14T00:17:36.364Z,1006.37
2016-09-14T00:18:17.004Z,1006.33
2016-09-14T00:18:58.556Z,1006.32
2016-09-14T00:19:40.728Z,1006.37
2016-09-14T00:20:21.246Z,1006.35
2016-09-14T00:21:01.813Z,1006.33
2016-09-14T00:21:42.488Z,1006.36
2016-09-14T00:22:25.179Z,1006.37
2016-09-14T00:23:05.707Z,1006.39
2016-09-14T00:23:46.328Z,1006.37
2016-09-14T00:24:26.857Z,1006.35
2016-09-14T00:25:07.387Z,1006.35
2016-09-14T00:25:47.976Z,1006.39
2016-09-14T00:26:28.543Z,1006.38
2016-09-14T00:27:09.075Z,1006.33
2016-09-14T00:27:49.599Z,1006.38
2016-09-14T00:28:30.112Z,1006.36
2016-09-14T00:29:10.667Z,1006.38
2016-09-14T00:29:51.184Z,1006.37
2016-09-14T00:30:31.671Z,1006.36
2016-09-14T00:31:12.296Z,1006.38
2016-09-14T00:31:54.499Z,1006.38
2016-09-14T00:32:35.001Z,1006.39
2016-09-14T00:33:15.496Z,1006.36
2016-09-14T00:33:57.014Z,1006.38
2016-09-14T00:34:37.520Z,1006.38
2016-09-14T00:35:18.021Z,1006.4
2016-09-14T00:35:58.572Z,1006.4
2016-09-14T00:36:42.041Z,1006.4
2016-09-14T00:37:24.385Z,1006.4
2016-09-14T00:38:04.890Z,1006.38
2016-09-14T00:38:45.441Z,1006.41
2016-09-14T00:39:25.993Z,1006.39
2016-09-14T00:40:06.545Z,1006.39
2016-09-14T00:40:48.869Z,1006.38
2016-09-14T00:41:31.067Z,1006.39
2016-09-14T00:42:11.694Z,1006.4
2016-09-14T00:42:52.354Z,1006.4
2016-09-14T00:43:32.807Z,1006.4
2016-09-14T00:44:13.368Z,1006.41
2016-09-14T00:44:53.955Z,1006.41
2016-09-14T00:45:34.526Z,1006.44
2016-09-14T00:46:15.084Z,1006.44
2016-09-14T00:46:55.649Z,1006.46
2016-09-14T00:47:36.286Z,1006.45
2016-09-14T00:48:18.380Z,1006.44
2016-09-14T00:48:58.902Z,1006.44
2016-09-14T00:49:39.395Z,1006.42
2016-09-14T00:50:19.967Z,1006.51
2016-09-14T00:51:00.509Z,1006.48
2016-09-14T00:51:43.093Z,1006.49
2016-09-14T00:52:23.573Z,1006.49
2016-09-14T00:53:05.908Z,1006.52
2016-09-14T00:53:46.477Z,1006.49
2016-09-14T00:54:27.020Z,1006.51
2016-09-14T00:55:07.636Z,1006.47
2016-09-14T00:55:48.168Z,1006.51
2016-09-14T00:56:28.690Z,1006.5
2016-09-14T00:57:09.247Z,1006.51
2016-09-14T00:57:51.882Z,1006.46
2016-09-14T00:58:32.373Z,1006.47
2016-09-14T00:59:12.868Z,1006.51
2016-09-14T00:59:53.414Z,1006.44
2016-09-14T01:00:33.998Z,1006.46
2016-09-14T01:01:14.564Z,1006.46
2016-09-14T01:01:55.111Z,1006.43
2016-09-14T01:02:35.620Z,1006.44
2016-09-14T01:03:16.156Z,1006.43
2016-09-14T01:03:56.763Z,1006.46
2016-09-14T01:04:37.389Z,1006.43
2016-09-14T01:05:17.972Z,1006.4
2016-09-14T01:06:00.106Z,1006.41
2016-09-14T01:06:45.053Z,1006.4
2016-09-14T01:07:25.623Z,1006.41
2016-09-14T01:08:06.166Z,1006.41
2016-09-14T01:08:46.679Z,1006.41
2016-09-14T01:09:27.297Z,1006.41
2016-09-14T01:10:07.797Z,1006.4
2016-09-14T01:10:48.404Z,1006.42
2016-09-14T01:11:28.942Z,1006.42
2016-09-14T01:12:09.434Z,1006.42
2016-09-14T01:12:50.071Z,1006.43
2016-09-14T01:13:30.682Z,1006.43
2016-09-14T01:14:11.215Z,1006.48
2016-09-14T01:14:51.782Z,1006.45
2016-09-14T01:15:32.373Z,1006.46
2016-09-14T01:16:12.881Z,1006.49
2016-09-14T01:16:53.410Z,1006.49
2016-09-14T01:17:34.022Z,1006.51
2016-09-14T01:18:14.562Z,1006.49
2016-09-14T01:18:55.228Z,1006.48
2016-09-14T01:19:35.742Z,1006.49
2016-09-14T01:20:16.386Z,1006.55
2016-09-14T01:20:57.011Z,1006.5
2016-09-14T01:21:37.543Z,1006.55
2016-09-14T01:22:18.125Z,1006.55
2016-09-14T01:22:58.719Z,1006.54
2016-09-14T01:23:39.271Z,1006.57
2016-09-14T01:24:19.832Z,1006.56
2016-09-14T01:25:00.437Z,1006.56
2016-09-14T01:25:40.900Z,1006.58
2016-09-14T01:26:21.437Z,1006.55
2016-09-14T01:27:01.939Z,1006.57
2016-09-14T01:27:42.448Z,1006.56
2016-09-14T01:28:22.990Z,1006.55
2016-09-14T01:29:03.607Z,1006.56
2016-09-14T01:29:44.181Z,1006.54
2016-09-14T01:30:24.749Z,1006.56
2016-09-14T01:31:05.305Z,1006.56
2016-09-14T01:31:46.027Z,1006.53
2016-09-14T01:32:26.510Z,1006.54
2016-09-14T01:33:07.042Z,1006.51
2016-09-14T01:33:47.661Z,1006.55
2016-09-14T01:34:29.892Z,1006.53
2016-09-14T01:35:10.446Z,1006.54
2016-09-14T01:35:51.071Z,1006.6
2016-09-14T01:36:31.712Z,1006.55
2016-09-14T01:37:12.179Z,1006.56
2016-09-14T01:37:54.377Z,1006.57
2016-09-14T01:38:34.987Z,1006.6
2016-09-14T01:39:15.493Z,1006.61
2016-09-14T01:39:56.052Z,1006.6
2016-09-14T01:40:36.608Z,1006.6
2016-09-14T01:41:17.319Z,1006.63
2016-09-14T01:41:57.903Z,1006.62
2016-09-14T01:42:38.444Z,1006.62
2016-09-14T01:43:20.656Z,1006.61
2016-09-14T01:44:02.736Z,1006.63
2016-09-14T01:44:43.353Z,1006.64
2016-09-14T01:45:23.945Z,1006.62
2016-09-14T01:46:06.301Z,1006.63
2016-09-14T01:46:46.844Z,1006.59
2016-09-14T01:47:27.417Z,1006.63
2016-09-14T01:48:09.691Z,1006.6
2016-09-14T01:48:50.367Z,1006.64
2016-09-14T01:49:30.933Z,1006.58
2016-09-14T01:50:11.486Z,1006.61
2016-09-14T01:50:52.044Z,1006.59
2016-09-14T01:51:32.720Z,1006.62
2016-09-14T01:52:13.403Z,1006.6
2016-09-14T01:52:53.961Z,1006.6
2016-09-14T01:53:34.679Z,1006.58
2016-09-14T01:54:15.183Z,1006.57
2016-09-14T01:54:55.711Z,1006.54
2016-09-14T01:55:36.262Z,1006.57
2016-09-14T01:56:16.884Z,1006.58
2016-09-14T01:56:59.336Z,1006.57
2016-09-14T01:57:39.951Z,1006.6
2016-09-14T01:58:20.451Z,1006.57
2016-09-14T01:59:01.026Z,1006.59
2016-09-14T01:59:41.615Z,1006.58
2016-09-14T02:00:22.130Z,1006.55
2016-09-14T02:01:02.807Z,1006.6
2016-09-14T02:01:43.386Z,1006.56
2016-09-14T02:02:23.996Z,1006.62
2016-09-14T02:03:04.505Z,1006.58
2016-09-14T02:03:45.224Z,1006.58
2016-09-14T02:04:25.817Z,1006.58
2016-09-14T02:05:06.366Z,1006.57
2016-09-14T02:05:49.662Z,1006.57
2016-09-14T02:06:30.323Z,1006.6
2016-09-14T02:07:10.794Z,1006.6
2016-09-14T02:07:51.354Z,1006.56
2016-09-14T02:08:32.054Z,1006.55
2016-09-14T02:09:14.414Z,1006.58
2016-09-14T02:09:57.727Z,1006.61
2016-09-14T02:10:38.386Z,1006.61
2016-09-14T02:11:18.912Z,1006.62
2016-09-14T02:11:59.471Z,1006.64
2016-09-14T02:12:40.057Z,1006.65
2016-09-14T02:13:22.392Z,1006.65
2016-09-14T02:14:02.915Z,1006.63
2016-09-14T02:14:43.540Z,1006.65
2016-09-14T02:15:24.111Z,1006.65
2016-09-14T02:16:04.632Z,1006.64
2016-09-14T02:16:45.133Z,1006.66
2016-09-14T02:17:25.700Z,1006.67
2016-09-14T02:18:06.261Z,1006.66
2016-09-14T02:18:46.873Z,1006.69
2016-09-14T02:19:27.460Z,1006.67
2016-09-14T02:20:08.096Z,1006.65
2016-09-14T02:20:48.655Z,1006.69
2016-09-14T02:21:30.718Z,1006.68
2016-09-14T02:22:11.263Z,1006.64
2016-09-14T02:22:51.829Z,1006.66
2016-09-14T02:23:34.243Z,1006.65
2016-09-14T02:24:16.646Z,1006.66
2016-09-14T02:24:57.239Z,1006.63
2016-09-14T02:25:37.745Z,1006.68
2016-09-14T02:26:18.281Z,1006.69
2016-09-14T02:26:58.870Z,1006.66
2016-09-14T02:27:39.426Z,1006.66
2016-09-14T02:28:19.976Z,1006.66
2016-09-14T02:29:00.544Z,1006.61
2016-09-14T02:29:41.206Z,1006.64
2016-09-14T02:30:23.542Z,1006.69
2016-09-14T02:31:04.055Z,1006.69
2016-09-14T02:31:44.644Z,1006.65
2016-09-14T02:32:25.227Z,1006.64
2016-09-14T02:33:05.778Z,1006.66
2016-09-14T02:33:46.267Z,1006.69
2016-09-14T02:34:26.828Z,1006.67
2016-09-14T02:35:07.434Z,1006.66
2016-09-14T02:35:47.988Z,1006.67
2016-09-14T02:36:30.217Z,1006.67
2016-09-14T02:37:10.759Z,1006.67
2016-09-14T02:37:51.343Z,1006.68
2016-09-14T02:38:31.965Z,1006.67
2016-09-14T02:39:12.556Z,1006.7
2016-09-14T02:39:53.223Z,1006.67
2016-09-14T02:40:33.766Z,1006.67
2016-09-14T02:41:14.372Z,1006.69
2016-09-14T02:41:55.063Z,1006.69
2016-09-14T02:42:35.564Z,1006.7
2016-09-14T02:43:16.260Z,1006.67
2016-09-14T02:43:56.725Z,1006.67
2016-09-14T02:44:37.277Z,1006.7
2016-09-14T02:45:17.792Z,1006.7
2016-09-14T02:45:58.394Z,1006.7
2016-09-14T02:46:38.978Z,1006.69
2016-09-14T02:47:19.499Z,1006.72
2016-09-14T02:48:00.034Z,1006.7
2016-09-14T02:48:40.570Z,1006.69
2016-09-14T02:49:21.209Z,1006.7
2016-09-14T02:50:01.898Z,1006.72
2016-09-14T02:50:42.502Z,1006.69
2016-09-14T02:51:23.020Z,1006.65
2016-09-14T02:52:03.599Z,1006.68
2016-09-14T02:52:44.176Z,1006.7
2016-09-14T02:53:24.800Z,1006.68
2016-09-14T02:54:05.336Z,1006.67
2016-09-14T02:54:45.872Z,1006.63
2016-09-14T02:55:26.443Z,1006.66
2016-09-14T02:56:06.964Z,1006.66
2016-09-14T02:56:47.532Z,1006.64
2016-09-14T02:57:28.064Z,1006.66
2016-09-14T02:58:08.593Z,1006.65
2016-09-14T02:58:50.881Z,1006.67
2016-09-14T02:59:31.455Z,1006.63
2016-09-14T03:00:11.966Z,1006.63
2016-09-14T03:00:52.591Z,1006.62
2016-09-14T03:01:33.077Z,1006.61
2016-09-14T03:02:13.634Z,1006.64
2016-09-14T03:02:54.165Z,1006.64
2016-09-14T03:03:34.707Z,1006.62
2016-09-14T03:04:15.428Z,1006.62
2016-09-14T03:04:58.793Z,1006.63
2016-09-14T03:05:39.415Z,1006.67
2016-09-14T03:06:20.081Z,1006.65
2016-09-14T03:07:00.757Z,1006.65
2016-09-14T03:07:41.214Z,1006.64
2016-09-14T03:08:21.847Z,1006.63
2016-09-14T03:09:02.473Z,1006.63
2016-09-14T03:09:43.089Z,1006.62
2016-09-14T03:10:23.653Z,1006.62
2016-09-14T03:11:04.191Z,1006.63
2016-09-14T03:11:46.453Z,1006.62
2016-09-14T03:12:26.965Z,1006.63
2016-09-14T03:13:07.538Z,1006.66
2016-09-14T03:13:48.153Z,1006.6
2016-09-14T03:14:28.697Z,1006.6
2016-09-14T03:15:09.250Z,1006.61
2016-09-14T03:15:49.769Z,1006.57
2016-09-14T03:16:30.358Z,1006.58
2016-09-14T03:17:10.895Z,1006.54
2016-09-14T03:19:27.098Z,1006.52
2016-09-14T03:20:07.632Z,1006.49
2016-09-14T03:20:48.161Z,1006.47
2016-09-14T03:21:28.755Z,1006.5
2016-09-14T03:22:09.268Z,1006.49
2016-09-14T03:22:49.864Z,1006.49
2016-09-14T03:23:30.329Z,1006.48
2016-09-14T03:24:10.855Z,1006.5
2016-09-14T03:24:51.465Z,1006.49
2016-09-14T03:25:32.002Z,1006.51
2016-09-14T03:26:12.520Z,1006.48
2016-09-14T03:26:53.066Z,1006.5
2016-09-14T03:27:33.544Z,1006.52
2016-09-14T03:28:14.057Z,1006.55
2016-09-14T03:28:54.549Z,1006.58
2016-09-14T03:29:35.064Z,1006.55
2016-09-14T03:30:15.641Z,1006.53
2016-09-14T03:30:56.188Z,1006.55
2016-09-14T03:31:36.676Z,1006.57
2016-09-14T03:32:17.173Z,1006.59
2016-09-14T03:32:57.728Z,1006.58
2016-09-14T03:33:38.184Z,1006.57
2016-09-14T03:34:18.731Z,1006.57
2016-09-14T03:34:59.185Z,1006.59
2016-09-14T03:35:39.717Z,1006.54
2016-09-14T03:36:20.237Z,1006.55
2016-09-14T03:37:00.715Z,1006.6
2016-09-14T03:37:41.224Z,1006.58
2016-09-14T03:38:21.801Z,1006.55
2016-09-14T03:39:02.281Z,1006.59
2016-09-14T03:39:42.771Z,1006.56
2016-09-14T03:40:23.376Z,1006.6
2016-09-14T03:41:03.842Z,1006.6
2016-09-14T03:41:44.407Z,1006.59
2016-09-14T03:42:24.910Z,1006.61
2016-09-14T03:43:05.408Z,1006.61
2016-09-14T03:43:45.911Z,1006.61
2016-09-14T03:44:26.451Z,1006.62
2016-09-14T03:45:06.945Z,1006.63
2016-09-14T03:45:47.515Z,1006.61
2016-09-14T03:46:28.046Z,1006.61
2016-09-14T03:47:08.600Z,1006.64
2016-09-14T03:47:49.150Z,1006.68
2016-09-14T03:48:29.680Z,1006.71
2016-09-14T03:49:10.218Z,1006.66
2016-09-14T03:49:50.752Z,1006.67
2016-09-14T03:50:31.299Z,1006.66
2016-09-14T03:51:11.835Z,1006.65
2016-09-14T03:51:52.370Z,1006.68
2016-09-14T03:52:32.922Z,1006.66
2016-09-14T03:53:13.459Z,1006.66
2016-09-14T03:53:54.163Z,1006.65
2016-09-14T03:54:35.091Z,1006.64
2016-09-14T03:55:15.829Z,1006.61
2016-09-14T03:55:56.424Z,1006.63
2016-09-14T03:56:37.002Z,1006.64
2016-09-14T03:57:17.495Z,1006.61
2016-09-14T03:57:58.001Z,1006.61
2016-09-14T03:58:38.540Z,1006.63
2016-09-14T03:59:19.139Z,1006.66
2016-09-14T03:59:59.629Z,1006.62
2016-09-14T04:00:40.143Z,1006.65
2016-09-14T04:01:20.656Z,1006.65
2016-09-14T04:02:01.182Z,1006.6
2016-09-14T04:02:41.694Z,1006.61
2016-09-14T04:03:22.315Z,1006.61
2016-09-14T04:04:02.787Z,1006.61
2016-09-14T04:04:43.334Z,1006.58
2016-09-14T04:05:23.917Z,1006.61
2016-09-14T04:06:04.451Z,1006.58
2016-09-14T04:06:44.902Z,1006.59
2016-09-14T04:07:25.411Z,1006.61
2016-09-14T04:08:05.924Z,1006.59
2016-09-14T04:08:46.505Z,1006.55
2016-09-14T04:09:27.066Z,1006.57
2016-09-14T04:10:07.566Z,1006.57
2016-09-14T04:10:48.100Z,1006.58
2016-09-14T04:11:28.621Z,1006.58
2016-09-14T04:12:09.170Z,1006.6
2016-09-14T04:12:49.718Z,1006.63
2016-09-14T04:13:30.274Z,1006.65
2016-09-14T04:14:10.844Z,1006.61
2016-09-14T04:14:51.396Z,1006.62
2016-09-14T04:15:31.921Z,1006.64
2016-09-14T04:16:12.522Z,1006.61
2016-09-14T04:16:53.252Z,1006.6
2016-09-14T04:17:33.693Z,1006.63
2016-09-14T04:18:14.217Z,1006.59
2016-09-14T04:18:54.801Z,1006.6
2016-09-14T04:19:35.342Z,1006.63
2016-09-14T04:20:15.903Z,1006.59
2016-09-14T04:20:56.467Z,1006.6
2016-09-14T04:21:37.026Z,1006.6
2016-09-14T04:22:17.619Z,1006.62
2016-09-14T04:22:58.088Z,1006.65
2016-09-14T04:23:38.649Z,1006.65
2016-09-14T04:24:19.180Z,1006.65
2016-09-14T04:24:59.694Z,1006.68
2016-09-14T04:25:40.191Z,1006.7
2016-09-14T04:26:20.688Z,1006.69
2016-09-14T04:27:01.229Z,1006.73
2016-09-14T04:27:41.727Z,1006.74
2016-09-14T04:28:22.356Z,1006.76
2016-09-14T04:29:02.902Z,1006.75
2016-09-14T04:29:43.484Z,1006.75
2016-09-14T04:30:23.993Z,1006.76
2016-09-14T04:31:04.556Z,1006.78
2016-09-14T04:31:45.005Z,1006.76
2016-09-14T04:32:25.527Z,1006.76
2016-09-14T04:33:06.078Z,1006.73
2016-09-14T04:33:46.656Z,1006.73
2016-09-14T04:34:27.087Z,1006.69
2016-09-14T04:35:07.601Z,1006.72
2016-09-14T04:35:48.132Z,1006.73
2016-09-14T04:36:28.720Z,1006.71
2016-09-14T04:37:09.239Z,1006.7
2016-09-14T04:37:49.776Z,1006.73
2016-09-14T04:38:30.325Z,1006.73
2016-09-14T04:39:10.873Z,1006.71
2016-09-14T04:39:51.327Z,1006.71
2016-09-14T04:40:31.969Z,1006.73
2016-09-14T04:41:12.496Z,1006.73
2016-09-14T04:41:53.048Z,1006.72
2016-09-14T04:42:33.510Z,1006.71
2016-09-14T04:43:14.039Z,1006.74
2016-09-14T04:43:54.673Z,1006.75
2016-09-14T04:44:35.866Z,1006.72
2016-09-14T04:45:16.733Z,1006.71
2016-09-14T04:45:57.418Z,1006.72
2016-09-14T04:46:38.180Z,1006.72
2016-09-14T04:47:18.772Z,1006.72
2016-09-14T04:47:59.465Z,1006.74
2016-09-14T04:48:40.331Z,1006.72
2016-09-14T04:49:20.866Z,1006.73
2016-09-14T04:50:01.369Z,1006.71
2016-09-14T04:50:41.919Z,1006.73
2016-09-14T04:51:22.466Z,1006.74
2016-09-14T04:52:03.013Z,1006.75
2016-09-14T04:52:43.563Z,1006.75
2016-09-14T04:53:24.107Z,1006.77
2016-09-14T04:54:04.639Z,1006.74
2016-09-14T04:54:45.186Z,1006.74
2016-09-14T04:55:25.730Z,1006.75
2016-09-14T04:56:06.266Z,1006.77
2016-09-14T04:56:46.812Z,1006.77
2016-09-14T04:57:27.365Z,1006.76
2016-09-14T04:58:07.913Z,1006.77
2016-09-14T04:58:48.478Z,1006.76
2016-09-14T04:59:29.005Z,1006.79
2016-09-14T05:00:09.583Z,1006.77
2016-09-14T05:00:50.124Z,1006.76
2016-09-14T05:01:30.664Z,1006.8
2016-09-14T05:02:11.209Z,1006.79
2016-09-14T05:02:51.753Z,1006.78
2016-09-14T05:03:32.281Z,1006.77
2016-09-14T05:04:12.834Z,1006.79
2016-09-14T05:04:53.379Z,1006.8
2016-09-14T05:05:33.923Z,1006.78
2016-09-14T05:06:14.463Z,1006.79
2016-09-14T05:06:55.011Z,1006.84
2016-09-14T05:07:35.549Z,1006.83
2016-09-14T05:08:16.095Z,1006.83
2016-09-14T05:08:56.635Z,1006.86
2016-09-14T05:09:37.170Z,1006.84
2016-09-14T05:10:17.716Z,1006.85
2016-09-14T05:10:58.262Z,1006.84
2016-09-14T05:11:38.799Z,1006.87
2016-09-14T05:12:19.344Z,1006.85
2016-09-14T05:12:59.879Z,1006.87
2016-09-14T05:13:40.431Z,1006.85
2016-09-14T05:14:20.981Z,1006.86
2016-09-14T05:15:01.521Z,1006.87
2016-09-14T05:15:42.041Z,1006.89
2016-09-14T05:16:22.585Z,1006.86
2016-09-14T05:17:03.132Z,1006.87
2016-09-14T05:17:43.672Z,1006.87
2016-09-14T05:18:24.220Z,1006.88
2016-09-14T05:19:04.767Z,1006.86
2016-09-14T05:19:45.324Z,1006.86
2016-09-14T05:20:25.868Z,1006.89
2016-09-14T05:21:06.428Z,1006.85
2016-09-14T05:21:46.974Z,1006.89
2016-09-14T05:22:27.522Z,1006.86
2016-09-14T05:23:08.061Z,1006.87
2016-09-14T05:23:48.605Z,1006.85
2016-09-14T05:24:29.141Z,1006.86
2016-09-14T05:25:09.675Z,1006.9
2016-09-14T05:25:50.218Z,1006.91
2016-09-14T05:26:30.764Z,1006.89
2016-09-14T05:27:11.339Z,1006.88
2016-09-14T05:27:51.884Z,1006.91
2016-09-14T05:28:32.428Z,1006.92
2016-09-14T05:29:12.975Z,1006.93
2016-09-14T05:29:53.533Z,1006.92
2016-09-14T05:30:34.069Z,1006.99
2016-09-14T05:31:14.611Z,1007
2016-09-14T05:31:55.170Z,1006.99
2016-09-14T05:32:35.723Z,1006.99
2016-09-14T05:33:16.262Z,1007.01
2016-09-14T05:33:56.793Z,1007.03
2016-09-14T05:34:37.353Z,1007.06
2016-09-14T05:35:17.894Z,1007.05
2016-09-14T05:35:58.446Z,1007.07
2016-09-14T05:36:38.987Z,1007.09
2016-09-14T05:37:19.535Z,1007.13
2016-09-14T05:38:00.084Z,1007.11
2016-09-14T05:38:40.638Z,1007.15
2016-09-14T05:39:21.178Z,1007.13
2016-09-14T05:40:01.720Z,1007.15
2016-09-14T05:40:42.267Z,1007.18
2016-09-14T05:41:22.798Z,1007.2
2016-09-14T05:42:03.352Z,1007.21
2016-09-14T05:42:43.885Z,1007.21
2016-09-14T05:43:24.460Z,1007.16
2016-09-14T05:44:04.987Z,1007.19
2016-09-14T05:44:45.529Z,1007.16
2016-09-14T05:45:26.071Z,1007.17
2016-09-14T05:46:06.607Z,1007.24
2016-09-14T05:46:47.153Z,1007.18
2016-09-14T05:47:27.689Z,1007.24
2016-09-14T05:48:08.228Z,1007.17
2016-09-14T05:48:48.773Z,1007.18
2016-09-14T05:49:29.325Z,1007.2
2016-09-14T05:50:09.875Z,1007.15
2016-09-14T05:50:50.438Z,1007.24
2016-09-14T05:51:30.980Z,1007.17
2016-09-14T05:52:11.533Z,1007.17
2016-09-14T05:52:52.071Z,1007.15
2016-09-14T05:53:32.596Z,1007.14
2016-09-14T05:54:13.174Z,1007.15
2016-09-14T05:54:53.701Z,1007.15
2016-09-14T05:55:34.247Z,1007.15
2016-09-14T05:56:14.797Z,1007.16
2016-09-14T05:56:55.338Z,1007.15
2016-09-14T05:57:35.872Z,1007.16
2016-09-14T05:58:16.418Z,1007.19
2016-09-14T05:58:56.966Z,1007.17
2016-09-14T05:59:37.516Z,1007.19
2016-09-14T06:00:18.063Z,1007.21
2016-09-14T06:00:58.611Z,1007.2
2016-09-14T06:01:39.166Z,1007.22
2016-09-14T06:02:19.718Z,1007.23
2016-09-14T06:03:00.265Z,1007.26
2016-09-14T06:03:40.804Z,1007.24
2016-09-14T06:04:21.311Z,1007.28
2016-09-14T06:05:01.841Z,1007.27
2016-09-14T06:05:42.380Z,1007.31
2016-09-14T06:06:22.931Z,1007.32
2016-09-14T06:07:03.489Z,1007.31
2016-09-14T06:07:44.031Z,1007.29
2016-09-14T06:08:24.576Z,1007.31
2016-09-14T06:09:05.122Z,1007.33
2016-09-14T06:09:45.666Z,1007.33
2016-09-14T06:10:26.815Z,1007.34
2016-09-14T06:11:07.370Z,1007.33
2016-09-14T06:11:47.924Z,1007.32
2016-09-14T06:12:28.466Z,1007.31
2016-09-14T06:13:09.015Z,1007.3
2016-09-14T06:13:49.548Z,1007.29
2016-09-14T06:14:30.100Z,1007.29
2016-09-14T06:15:10.638Z,1007.25
2016-09-14T06:15:51.163Z,1007.28
2016-09-14T06:16:31.711Z,1007.25
2016-09-14T06:17:12.263Z,1007.29
2016-09-14T06:17:52.804Z,1007.3
2016-09-14T06:18:33.364Z,1007.29
2016-09-14T06:19:13.903Z,1007.3
2016-09-14T06:19:54.450Z,1007.3
2016-09-14T06:20:34.997Z,1007.32
2016-09-14T06:21:15.551Z,1007.32
2016-09-14T06:21:56.101Z,1007.33
2016-09-14T06:22:36.655Z,1007.32
2016-09-14T06:23:17.222Z,1007.33
2016-09-14T06:23:57.773Z,1007.36
2016-09-14T06:24:38.333Z,1007.35
2016-09-14T06:25:18.860Z,1007.36
2016-09-14T06:25:59.407Z,1007.34
2016-09-14T06:26:39.957Z,1007.38
2016-09-14T06:27:20.544Z,1007.36
2016-09-14T06:28:01.086Z,1007.35
2016-09-14T06:28:41.699Z,1007.35
2016-09-14T06:29:22.252Z,1007.4
2016-09-14T06:30:02.804Z,1007.36
2016-09-14T06:30:43.385Z,1007.39
2016-09-14T06:31:23.914Z,1007.38
2016-09-14T06:32:04.465Z,1007.37
2016-09-14T06:32:45.043Z,1007.39
2016-09-14T06:33:25.583Z,1007.37
2016-09-14T06:34:06.126Z,1007.41
2016-09-14T06:34:46.678Z,1007.36
2016-09-14T06:35:27.227Z,1007.36
2016-09-14T06:36:07.773Z,1007.37
2016-09-14T06:36:48.325Z,1007.36
2016-09-14T06:37:28.874Z,1007.39
2016-09-14T06:38:09.426Z,1007.37
2016-09-14T06:38:49.964Z,1007.4
2016-09-14T06:39:30.508Z,1007.35
2016-09-14T06:40:11.054Z,1007.33
2016-09-14T06:40:51.605Z,1007.37
2016-09-14T06:41:32.157Z,1007.35
2016-09-14T06:42:12.704Z,1007.35
2016-09-14T06:42:53.255Z,1007.34
2016-09-14T06:43:33.803Z,1007.31
2016-09-14T06:44:14.358Z,1007.24
2016-09-14T06:44:54.910Z,1007.26
2016-09-14T06:45:35.461Z,1007.27
2016-09-14T06:46:16.009Z,1007.28
2016-09-14T06:46:56.560Z,1007.28
2016-09-14T06:47:37.101Z,1007.28
2016-09-14T06:48:17.650Z,1007.27
2016-09-14T06:48:58.193Z,1007.27
2016-09-14T06:49:38.743Z,1007.28
2016-09-14T06:50:19.292Z,1007.26
2016-09-14T06:50:59.832Z,1007.33
2016-09-14T06:51:40.379Z,1007.29
2016-09-14T06:52:20.925Z,1007.32
2016-09-14T06:53:01.472Z,1007.31
2016-09-14T06:53:42.011Z,1007.36
2016-09-14T06:54:22.564Z,1007.31
2016-09-14T06:55:03.111Z,1007.31
2016-09-14T06:55:43.659Z,1007.36
2016-09-14T06:56:24.212Z,1007.36
2016-09-14T06:57:04.756Z,1007.33
2016-09-14T06:57:45.299Z,1007.32
2016-09-14T06:58:25.845Z,1007.37
2016-09-14T06:59:06.400Z,1007.38
2016-09-14T06:59:46.948Z,1007.35
2016-09-14T07:00:27.499Z,1007.36
2016-09-14T07:01:08.055Z,1007.37
2016-09-14T07:01:48.609Z,1007.34
2016-09-14T07:02:29.157Z,1007.34
2016-09-14T07:03:09.704Z,1007.34
2016-09-14T07:03:50.256Z,1007.35
2016-09-14T07:04:30.804Z,1007.38
2016-09-14T07:05:11.355Z,1007.32
2016-09-14T07:05:51.901Z,1007.32
2016-09-14T07:06:32.453Z,1007.3
2016-09-14T07:07:13.004Z,1007.28
2016-09-14T07:07:53.556Z,1007.28
2016-09-14T07:08:34.108Z,1007.28
2016-09-14T07:09:14.660Z,1007.28
2016-09-14T07:09:55.210Z,1007.25
2016-09-14T07:10:35.764Z,1007.27
2016-09-14T07:11:16.314Z,1007.28
2016-09-14T07:11:56.864Z,1007.24
2016-09-14T07:12:37.417Z,1007.28
2016-09-14T07:13:17.967Z,1007.23
2016-09-14T07:13:58.519Z,1007.25
2016-09-14T07:14:39.074Z,1007.27
2016-09-14T07:15:19.619Z,1007.27
2016-09-14T07:16:00.172Z,1007.25
2016-09-14T07:16:40.722Z,1007.25
2016-09-14T07:17:21.272Z,1007.24
2016-09-14T07:18:01.823Z,1007.28
2016-09-14T07:18:42.372Z,1007.28
2016-09-14T07:19:22.924Z,1007.28
2016-09-14T07:20:03.475Z,1007.3
2016-09-14T07:20:44.034Z,1007.29
2016-09-14T07:21:24.593Z,1007.32
2016-09-14T07:22:05.130Z,1007.34
2016-09-14T07:22:45.678Z,1007.35
2016-09-14T07:23:26.226Z,1007.36
2016-09-14T07:24:06.761Z,1007.35
2016-09-14T07:24:47.312Z,1007.39
2016-09-14T07:25:27.886Z,1007.39
2016-09-14T07:26:08.437Z,1007.4
2016-09-14T07:26:48.984Z,1007.45
2016-09-14T07:27:29.530Z,1007.43
2016-09-14T07:28:10.084Z,1007.44
2016-09-14T07:28:50.638Z,1007.45
2016-09-14T07:29:31.187Z,1007.46
2016-09-14T07:30:11.737Z,1007.45
2016-09-14T07:30:52.289Z,1007.43
2016-09-14T07:31:32.836Z,1007.43
2016-09-14T07:32:13.388Z,1007.46
2016-09-14T07:32:53.937Z,1007.44
2016-09-14T07:33:34.489Z,1007.45
2016-09-14T07:34:15.039Z,1007.47
2016-09-14T07:34:55.591Z,1007.45
2016-09-14T07:35:36.151Z,1007.45
2016-09-14T07:36:16.701Z,1007.45
2016-09-14T07:36:57.248Z,1007.47
2016-09-14T07:37:37.798Z,1007.48
2016-09-14T07:38:18.349Z,1007.49
2016-09-14T07:38:58.901Z,1007.42
2016-09-14T07:39:39.451Z,1007.47
2016-09-14T07:40:20.001Z,1007.47
2016-09-14T07:41:00.552Z,1007.47
2016-09-14T07:41:41.110Z,1007.45
2016-09-14T07:42:21.658Z,1007.47
2016-09-14T07:43:02.209Z,1007.49
2016-09-14T07:43:42.762Z,1007.51
2016-09-14T07:44:23.309Z,1007.51
2016-09-14T07:45:03.859Z,1007.55
2016-09-14T07:45:44.407Z,1007.53
2016-09-14T07:46:24.959Z,1007.56
2016-09-14T07:47:05.509Z,1007.54
2016-09-14T07:47:46.060Z,1007.53
2016-09-14T07:48:26.613Z,1007.53
2016-09-14T07:49:07.158Z,1007.54
2016-09-14T07:49:47.709Z,1007.5
2016-09-14T07:50:28.268Z,1007.51
2016-09-14T07:51:08.816Z,1007.55
2016-09-14T07:51:49.365Z,1007.53
2016-09-14T07:52:29.919Z,1007.52
2016-09-14T07:53:10.470Z,1007.52
2016-09-14T07:53:51.020Z,1007.51
2016-09-14T07:54:31.570Z,1007.55
2016-09-14T07:55:12.121Z,1007.53
2016-09-14T07:55:52.688Z,1007.5
2016-09-14T07:56:33.237Z,1007.55
2016-09-14T07:57:13.791Z,1007.49
2016-09-14T07:57:54.344Z,1007.51
2016-09-14T07:58:34.892Z,1007.5
2016-09-14T07:59:15.441Z,1007.53
2016-09-14T07:59:55.993Z,1007.55
2016-09-14T08:00:36.542Z,1007.52
2016-09-14T08:01:17.094Z,1007.54
2016-09-14T08:01:57.640Z,1007.55
2016-09-14T08:02:38.187Z,1007.56
2016-09-14T08:03:18.736Z,1007.55
2016-09-14T08:03:59.285Z,1007.52
2016-09-14T08:04:39.835Z,1007.56
2016-09-14T08:05:20.385Z,1007.55
2016-09-14T08:06:00.935Z,1007.53
2016-09-14T08:06:41.479Z,1007.52
2016-09-14T08:07:22.030Z,1007.5
2016-09-14T08:08:02.582Z,1007.5
2016-09-14T08:08:43.133Z,1007.49
2016-09-14T08:09:23.689Z,1007.47
2016-09-14T08:10:04.240Z,1007.45
2016-09-14T08:10:44.791Z,1007.48
2016-09-14T08:11:25.341Z,1007.46
2016-09-14T08:12:05.892Z,1007.49
2016-09-14T08:12:46.442Z,1007.5
2016-09-14T08:13:27.005Z,1007.51
2016-09-14T08:14:07.543Z,1007.45
2016-09-14T08:14:48.094Z,1007.42
2016-09-14T08:15:28.645Z,1007.46